sensor_id;sensor_type;location;lat;lon;timestamp;pressure;altitude;pressure_sealevel;temperature;humidity
31585;BME280;18191;51.288;12.390;2022-12-07T00:01:51;49289.34;;;-144.47;98.16
31585;BME280;18191;51.288;12.390;2022-12-07T00:06:42;49279.38;;;-144.47;97.51
31585;BME280;18191;51.288;12.390;2022-12-07T00:11:32;49301.28;;;-144.47;96.67
31585;BME280;18191;51.288;12.390;2022-12-07T00:16:24;49309.22;;;-144.47;96.61
31585;BME280;18191;51.288;12.390;2022-12-07T00:21:16;49263.47;;;-144.47;95.95
31585;BME280;18191;51.288;12.390;2022-12-07T00:26:07;49279.38;;;-144.47;96.33
31585;BME280;18191;51.288;12.390;2022-12-07T00:31:05;49295.31;;;-144.47;96.40
31585;BME280;18191;51.288;12.390;2022-12-07T00:35:57;49311.22;;;-144.47;97.13
31585;BME280;18191;51.288;12.390;2022-12-07T00:40:53;49327.13;;;-144.47;96.40
31585;BME280;18191;51.288;12.390;2022-12-07T00:45:44;49303.25;;;-144.47;96.49
31585;BME280;18191;51.288;12.390;2022-12-07T00:50:34;49287.34;;;-144.47;98.34
31585;BME280;18191;51.288;12.390;2022-12-07T00:55:24;49279.38;;;-144.47;98.77
31585;BME280;18191;51.288;12.390;2022-12-07T01:00:14;49255.50;;;-144.47;99.31
31585;BME280;18191;51.288;12.390;2022-12-07T01:05:05;49291.31;;;-144.47;99.21
31585;BME280;18191;51.288;12.390;2022-12-07T01:09:55;49305.25;;;-144.47;99.59
31585;BME280;18191;51.288;12.390;2022-12-07T01:14:45;49267.44;;;-144.47;98.78
31585;BME280;18191;51.288;12.390;2022-12-07T01:19:35;49275.41;;;-144.47;99.01
31585;BME280;18191;51.288;12.390;2022-12-07T01:24:25;49279.38;;;-144.47;98.89
31585;BME280;18191;51.288;12.390;2022-12-07T01:29:16;49299.28;;;-144.47;98.79
31585;BME280;18191;51.288;12.390;2022-12-07T01:34:06;49283.38;;;-144.47;98.36
31585;BME280;18191;51.288;12.390;2022-12-07T01:38:57;49315.19;;;-144.47;99.12
31585;BME280;18191;51.288;12.390;2022-12-07T01:48:56;49295.31;;;-144.47;99.54
31585;BME280;18191;51.288;12.390;2022-12-07T01:53:46;49251.53;;;-144.47;99.61
31585;BME280;18191;51.288;12.390;2022-12-07T01:58:37;49275.41;;;-144.47;99.52
31585;BME280;18191;51.288;12.390;2022-12-07T02:03:29;49245.56;;;-144.47;99.74
31585;BME280;18191;51.288;12.390;2022-12-07T02:08:22;49307.25;;;-144.47;100.00
31585;BME280;18191;51.288;12.390;2022-12-07T02:13:13;49277.41;;;-144.47;100.00
31585;BME280;18191;51.288;12.390;2022-12-07T02:28:03;49291.31;;;-144.47;100.00
31585;BME280;18191;51.288;12.390;2022-12-07T02:33:15;49263.47;;;-144.47;100.00
31585;BME280;18191;51.288;12.390;2022-12-07T02:38:10;49285.34;;;-144.47;100.00
31585;BME280;18191;51.288;12.390;2022-12-07T02:43:11;49267.44;;;-144.47;100.00
31585;BME280;18191;51.288;12.390;2022-12-07T02:48:03;49263.47;;;-144.47;100.00
31585;BME280;18191;51.288;12.390;2022-12-07T02:52:56;49243.56;;;-144.47;99.74
31585;BME280;18191;51.288;12.390;2022-12-07T02:58:05;49271.44;;;-144.47;99.36
31585;BME280;18191;51.288;12.390;2022-12-07T03:02:58;49287.34;;;-144.47;100.00
31585;BME280;18191;51.288;12.390;2022-12-07T03:13:03;49263.47;;;-144.47;100.00
31585;BME280;18191;51.288;12.390;2022-12-07T03:17:55;49335.09;;;-144.47;99.37
31585;BME280;18191;51.288;12.390;2022-12-07T03:22:47;49283.38;;;-144.47;99.12
31585;BME280;18191;51.288;12.390;2022-12-07T03:32:40;49271.44;;;-144.47;99.60
31585;BME280;18191;51.288;12.390;2022-12-07T03:37:34;49295.31;;;-144.47;100.00
31585;BME280;18191;51.288;12.390;2022-12-07T03:42:26;49279.38;;;-144.47;99.75
31585;BME280;18191;51.288;12.390;2022-12-07T03:47:22;49287.34;;;-144.47;100.00
31585;BME280;18191;51.288;12.390;2022-12-07T03:52:24;49271.44;;;-144.47;99.92
31585;BME280;18191;51.288;12.390;2022-12-07T03:57:16;49267.44;;;-144.47;99.90
31585;BME280;18191;51.288;12.390;2022-12-07T04:02:07;49271.44;;;-144.47;99.51
31585;BME280;18191;51.288;12.390;2022-12-07T04:07:00;49291.31;;;-144.47;98.49
31585;BME280;18191;51.288;12.390;2022-12-07T04:11:51;49279.38;;;-144.47;98.68
31585;BME280;18191;51.288;12.390;2022-12-07T04:16:41;49275.41;;;-144.47;98.28
31585;BME280;18191;51.288;12.390;2022-12-07T04:21:31;49275.41;;;-144.47;98.05
31585;BME280;18191;51.288;12.390;2022-12-07T04:26:21;49275.41;;;-144.47;97.87
31585;BME280;18191;51.288;12.390;2022-12-07T04:31:11;49271.44;;;-144.47;97.43
31585;BME280;18191;51.288;12.390;2022-12-07T04:36:02;49269.44;;;-144.47;97.57
31585;BME280;18191;51.288;12.390;2022-12-07T04:40:52;49291.31;;;-144.47;97.37
31585;BME280;18191;51.288;12.390;2022-12-07T04:45:46;49267.44;;;-144.47;96.70
31585;BME280;18191;51.288;12.390;2022-12-07T04:50:37;49307.25;;;-144.47;96.10
31585;BME280;18191;51.288;12.390;2022-12-07T04:55:28;49225.66;;;-144.47;96.44
31585;BME280;18191;51.288;12.390;2022-12-07T05:00:18;49275.41;;;-144.47;97.22
31585;BME280;18191;51.288;12.390;2022-12-07T05:05:08;49295.31;;;-144.47;97.57
31585;BME280;18191;51.288;12.390;2022-12-07T05:09:59;49327.13;;;-144.47;97.17
31585;BME280;18191;51.288;12.390;2022-12-07T05:14:49;49275.41;;;-144.47;97.16
31585;BME280;18191;51.288;12.390;2022-12-07T05:19:39;49303.25;;;-144.47;97.19
31585;BME280;18191;51.288;12.390;2022-12-07T05:24:29;49267.44;;;-144.47;97.45
31585;BME280;18191;51.288;12.390;2022-12-07T05:29:19;49291.31;;;-144.47;97.60
31585;BME280;18191;51.288;12.390;2022-12-07T05:34:10;49257.50;;;-144.47;97.03
31585;BME280;18191;51.288;12.390;2022-12-07T05:39:00;49243.56;;;-144.47;96.67
31585;BME280;18191;51.288;12.390;2022-12-07T05:43:50;49315.19;;;-144.47;96.84
31585;BME280;18191;51.288;12.390;2022-12-07T05:48:40;49301.28;;;-144.47;97.49
31585;BME280;18191;51.288;12.390;2022-12-07T05:53:31;49287.34;;;-144.47;97.01
31585;BME280;18191;51.288;12.390;2022-12-07T05:58:21;49287.34;;;-144.47;96.34
31585;BME280;18191;51.288;12.390;2022-12-07T06:03:29;49267.44;;;-144.47;96.32
31585;BME280;18191;51.288;12.390;2022-12-07T06:08:20;49291.31;;;-144.47;97.13
31585;BME280;18191;51.288;12.390;2022-12-07T06:13:10;49271.44;;;-144.47;96.98
31585;BME280;18191;51.288;12.390;2022-12-07T06:18:00;49247.56;;;-144.47;97.35
31585;BME280;18191;51.288;12.390;2022-12-07T06:22:50;49279.38;;;-144.47;98.69
31585;BME280;18191;51.288;12.390;2022-12-07T06:27:40;49263.47;;;-144.47;99.17
31585;BME280;18191;51.288;12.390;2022-12-07T06:32:31;49267.44;;;-144.47;98.58
31585;BME280;18191;51.288;12.390;2022-12-07T06:37:21;49245.56;;;-144.47;98.17
31585;BME280;18191;51.288;12.390;2022-12-07T06:42:11;49279.38;;;-144.47;98.54
31585;BME280;18191;51.288;12.390;2022-12-07T06:47:01;49295.31;;;-144.47;99.10
31585;BME280;18191;51.288;12.390;2022-12-07T06:51:52;49251.53;;;-144.47;99.04
31585;BME280;18191;51.288;12.390;2022-12-07T06:56:42;49277.41;;;-144.47;99.64
31585;BME280;18191;51.288;12.390;2022-12-07T07:01:33;49295.31;;;-144.47;100.00
31585;BME280;18191;51.288;12.390;2022-12-07T07:06:23;49273.41;;;-144.47;99.45
31585;BME280;18191;51.288;12.390;2022-12-07T07:11:13;49291.31;;;-144.47;99.61
31585;BME280;18191;51.288;12.390;2022-12-07T07:16:04;49259.50;;;-144.47;99.44
31585;BME280;18191;51.288;12.390;2022-12-07T07:20:54;49251.53;;;-144.47;99.88
31585;BME280;18191;51.288;12.390;2022-12-07T07:25:45;49283.38;;;-144.47;99.12
31585;BME280;18191;51.288;12.390;2022-12-07T07:30:35;49297.28;;;-144.47;97.37
31585;BME280;18191;51.288;12.390;2022-12-07T07:35:26;49295.31;;;-144.47;97.80
31585;BME280;18191;51.288;12.390;2022-12-07T07:40:16;49267.44;;;-144.47;96.63
31585;BME280;18191;51.288;12.390;2022-12-07T07:45:07;49287.34;;;-144.47;96.55
31585;BME280;18191;51.288;12.390;2022-12-07T07:49:57;49287.34;;;-144.47;96.30
31585;BME280;18191;51.288;12.390;2022-12-07T07:54:47;49299.28;;;-144.47;96.55
31585;BME280;18191;51.288;12.390;2022-12-07T07:59:37;49267.44;;;-144.47;96.16
31585;BME280;18191;51.288;12.390;2022-12-07T08:04:28;49285.34;;;-144.47;96.57
31585;BME280;18191;51.288;12.390;2022-12-07T08:09:18;49291.31;;;-144.47;96.60
31585;BME280;18191;51.288;12.390;2022-12-07T08:14:09;49267.44;;;-144.47;96.47
31585;BME280;18191;51.288;12.390;2022-12-07T08:18:59;49283.38;;;-144.47;96.28
31585;BME280;18191;51.288;12.390;2022-12-07T08:23:50;49295.31;;;-144.47;96.31
31585;BME280;18191;51.288;12.390;2022-12-07T08:28:40;49283.38;;;-144.47;96.52
31585;BME280;18191;51.288;12.390;2022-12-07T08:33:30;49299.28;;;-144.47;95.79
31585;BME280;18191;51.288;12.390;2022-12-07T08:38:20;49273.41;;;-144.47;94.16
31585;BME280;18191;51.288;12.390;2022-12-07T08:43:10;49269.44;;;-144.47;91.89
31585;BME280;18191;51.288;12.390;2022-12-07T08:48:06;49263.47;;;-144.47;90.52
31585;BME280;18191;51.288;12.390;2022-12-07T08:52:56;49291.31;;;-144.47;88.53
31585;BME280;18191;51.288;12.390;2022-12-07T08:57:48;49271.44;;;-144.47;86.75
31585;BME280;18191;51.288;12.390;2022-12-07T09:02:38;49279.38;;;-144.47;87.95
31585;BME280;18191;51.288;12.390;2022-12-07T09:07:28;49283.38;;;-144.47;89.11
31585;BME280;18191;51.288;12.390;2022-12-07T09:12:20;49295.31;;;-144.47;88.64
31585;BME280;18191;51.288;12.390;2022-12-07T09:17:11;49267.44;;;-144.47;88.52
31585;BME280;18191;51.288;12.390;2022-12-07T09:22:02;49283.38;;;-144.47;87.52
31585;BME280;18191;51.288;12.390;2022-12-07T09:26:52;49227.66;;;-144.47;86.37
31585;BME280;18191;51.288;12.390;2022-12-07T09:31:42;49267.44;;;-144.47;87.08
31585;BME280;18191;51.288;12.390;2022-12-07T09:36:33;49267.44;;;-144.47;87.94
31585;BME280;18191;51.288;12.390;2022-12-07T09:41:23;49255.50;;;-144.47;88.55
31585;BME280;18191;51.288;12.390;2022-12-07T09:46:15;49275.41;;;-144.47;89.53
31585;BME280;18191;51.288;12.390;2022-12-07T09:51:40;49311.22;;;-144.47;89.73
31585;BME280;18191;51.288;12.390;2022-12-07T09:56:24;49287.34;;;-144.47;89.69
31585;BME280;18191;51.288;12.390;2022-12-07T10:01:16;49275.41;;;-144.47;88.11
31585;BME280;18191;51.288;12.390;2022-12-07T10:06:06;49277.41;;;-144.47;87.89
31585;BME280;18191;51.288;12.390;2022-12-07T10:10:57;49275.41;;;-144.47;87.56
31585;BME280;18191;51.288;12.390;2022-12-07T10:15:55;49243.56;;;-144.47;85.66
31585;BME280;18191;51.288;12.390;2022-12-07T10:20:46;49263.47;;;-144.47;84.82
31585;BME280;18191;51.288;12.390;2022-12-07T10:25:37;49283.38;;;-144.47;85.34
31585;BME280;18191;51.288;12.390;2022-12-07T10:30:30;49231.63;;;-144.47;85.52
31585;BME280;18191;51.288;12.390;2022-12-07T10:35:23;49285.34;;;-144.47;86.28
31585;BME280;18191;51.288;12.390;2022-12-07T10:45:16;49291.31;;;-144.47;86.24
31585;BME280;18191;51.288;12.390;2022-12-07T10:55:25;49303.25;;;-144.47;86.27
31585;BME280;18191;51.288;12.390;2022-12-07T11:00:19;49229.66;;;-144.47;85.77
31585;BME280;18191;51.288;12.390;2022-12-07T11:05:25;49305.25;;;-144.47;86.60
31585;BME280;18191;51.288;12.390;2022-12-07T11:10:41;49243.56;;;-144.47;85.46
31585;BME280;18191;51.288;12.390;2022-12-07T11:20:41;49317.19;;;-144.47;88.11
31585;BME280;18191;51.288;12.390;2022-12-07T11:25:35;49247.56;;;-144.47;87.75
31585;BME280;18191;51.288;12.390;2022-12-07T11:40:39;49287.34;;;-144.47;87.27
31585;BME280;18191;51.288;12.390;2022-12-07T11:45:31;49307.25;;;-144.47;86.25
31585;BME280;18191;51.288;12.390;2022-12-07T11:50:41;49307.25;;;-144.47;85.16
31585;BME280;18191;51.288;12.390;2022-12-07T12:00:51;49267.44;;;-144.47;84.27
31585;BME280;18191;51.288;12.390;2022-12-07T12:05:45;49263.47;;;-144.47;83.82
31585;BME280;18191;51.288;12.390;2022-12-07T12:15:52;49257.50;;;-144.47;80.20
31585;BME280;18191;51.288;12.390;2022-12-07T12:20:50;49233.63;;;-144.47;80.02
31585;BME280;18191;51.288;12.390;2022-12-07T12:30:38;49279.38;;;-144.47;79.87
31585;BME280;18191;51.288;12.390;2022-12-07T12:45:18;49275.41;;;-144.47;76.37
31585;BME280;18191;51.288;12.390;2022-12-07T12:50:16;49269.44;;;-144.47;77.05
31585;BME280;18191;51.288;12.390;2022-12-07T12:59:57;49241.59;;;-144.47;76.05
31585;BME280;18191;51.288;12.390;2022-12-07T13:09:42;49247.56;;;-144.47;76.77
31585;BME280;18191;51.288;12.390;2022-12-07T13:24:32;49279.38;;;-144.47;77.00
31585;BME280;18191;51.288;12.390;2022-12-07T13:29:23;49275.41;;;-144.47;76.03
31585;BME280;18191;51.288;12.390;2022-12-07T13:39:23;49279.38;;;-144.47;74.40
31585;BME280;18191;51.288;12.390;2022-12-07T13:44:14;49227.66;;;-144.47;74.63
31585;BME280;18191;51.288;12.390;2022-12-07T13:49:13;49279.38;;;-144.47;75.45
31585;BME280;18191;51.288;12.390;2022-12-07T13:54:10;49283.38;;;-144.47;74.94
31585;BME280;18191;51.288;12.390;2022-12-07T13:59:00;49267.44;;;-144.47;75.55
31585;BME280;18191;51.288;12.390;2022-12-07T14:03:51;49269.44;;;-144.47;75.06
31585;BME280;18191;51.288;12.390;2022-12-07T14:08:41;49277.41;;;-144.47;73.80
31585;BME280;18191;51.288;12.390;2022-12-07T14:18:35;49279.38;;;-144.47;74.38
31585;BME280;18191;51.288;12.390;2022-12-07T14:23:26;49295.31;;;-144.47;74.33
31585;BME280;18191;51.288;12.390;2022-12-07T14:28:33;49267.44;;;-144.47;74.18
31585;BME280;18191;51.288;12.390;2022-12-07T14:33:24;49267.44;;;-144.47;74.97
31585;BME280;18191;51.288;12.390;2022-12-07T14:38:15;49303.25;;;-144.47;74.65
31585;BME280;18191;51.288;12.390;2022-12-07T14:43:08;49263.47;;;-144.47;75.23
31585;BME280;18191;51.288;12.390;2022-12-07T14:47:59;49255.50;;;-144.47;75.27
31585;BME280;18191;51.288;12.390;2022-12-07T14:52:56;49239.59;;;-144.47;74.75
31585;BME280;18191;51.288;12.390;2022-12-07T14:57:49;49251.53;;;-144.47;74.29
31585;BME280;18191;51.288;12.390;2022-12-07T15:02:39;49277.41;;;-144.47;74.06
31585;BME280;18191;51.288;12.390;2022-12-07T15:07:29;49303.25;;;-144.47;76.63
31585;BME280;18191;51.288;12.390;2022-12-07T15:12:19;49263.47;;;-144.47;75.83
31585;BME280;18191;51.288;12.390;2022-12-07T15:17:10;49279.38;;;-144.47;76.04
31585;BME280;18191;51.288;12.390;2022-12-07T15:22:00;49257.50;;;-144.47;76.19
31585;BME280;18191;51.288;12.390;2022-12-07T15:26:51;49295.31;;;-144.47;77.55
31585;BME280;18191;51.288;12.390;2022-12-07T15:31:42;49267.44;;;-144.47;77.94
31585;BME280;18191;51.288;12.390;2022-12-07T15:36:32;49255.50;;;-144.47;77.58
31585;BME280;18191;51.288;12.390;2022-12-07T15:41:23;49241.59;;;-144.47;77.60
31585;BME280;18191;51.288;12.390;2022-12-07T15:46:14;49275.41;;;-144.47;77.02
31585;BME280;18191;51.288;12.390;2022-12-07T15:51:05;49267.44;;;-144.47;77.77
31585;BME280;18191;51.288;12.390;2022-12-07T15:55:55;49251.53;;;-144.47;76.62
31585;BME280;18191;51.288;12.390;2022-12-07T16:00:45;49275.41;;;-144.47;74.99
31585;BME280;18191;51.288;12.390;2022-12-07T16:05:37;49283.38;;;-144.47;76.22
31585;BME280;18191;51.288;12.390;2022-12-07T16:10:27;49317.19;;;-144.47;76.87
31585;BME280;18191;51.288;12.390;2022-12-07T16:15:17;49249.53;;;-144.47;75.67
31585;BME280;18191;51.288;12.390;2022-12-07T16:20:07;49227.66;;;-144.47;76.37
31585;BME280;18191;51.288;12.390;2022-12-07T16:24:58;49247.56;;;-144.47;77.36
31585;BME280;18191;51.288;12.390;2022-12-07T16:29:48;49289.34;;;-144.47;80.79
31585;BME280;18191;51.288;12.390;2022-12-07T16:34:39;49249.53;;;-144.47;83.17
31585;BME280;18191;51.288;12.390;2022-12-07T16:39:29;49293.31;;;-144.47;84.21
31585;BME280;18191;51.288;12.390;2022-12-07T16:44:19;49269.44;;;-144.47;84.43
31585;BME280;18191;51.288;12.390;2022-12-07T16:49:13;49279.38;;;-144.47;86.35
31585;BME280;18191;51.288;12.390;2022-12-07T16:54:04;49269.44;;;-144.47;87.64
31585;BME280;18191;51.288;12.390;2022-12-07T16:58:54;49273.41;;;-144.47;88.59
31585;BME280;18191;51.288;12.390;2022-12-07T17:03:44;49291.31;;;-144.47;89.22
31585;BME280;18191;51.288;12.390;2022-12-07T17:08:35;49283.38;;;-144.47;89.51
31585;BME280;18191;51.288;12.390;2022-12-07T17:13:25;49255.50;;;-144.47;89.62
31585;BME280;18191;51.288;12.390;2022-12-07T17:18:35;49303.25;;;-144.47;88.72
31585;BME280;18191;51.288;12.390;2022-12-07T17:23:25;49291.31;;;-144.47;87.92
31585;BME280;18191;51.288;12.390;2022-12-07T17:28:16;49239.59;;;-144.47;86.98
31585;BME280;18191;51.288;12.390;2022-12-07T17:33:06;49269.44;;;-144.47;86.03
31585;BME280;18191;51.288;12.390;2022-12-07T17:37:56;49305.25;;;-144.47;84.22
31585;BME280;18191;51.288;12.390;2022-12-07T17:42:46;49281.38;;;-144.47;85.35
31585;BME280;18191;51.288;12.390;2022-12-07T17:47:40;49285.34;;;-144.47;87.00
31585;BME280;18191;51.288;12.390;2022-12-07T17:52:30;49303.25;;;-144.47;85.38
31585;BME280;18191;51.288;12.390;2022-12-07T17:57:39;49299.28;;;-144.47;86.70
31585;BME280;18191;51.288;12.390;2022-12-07T18:02:32;49247.56;;;-144.47;86.35
31585;BME280;18191;51.288;12.390;2022-12-07T18:07:22;49279.38;;;-144.47;84.99
31585;BME280;18191;51.288;12.390;2022-12-07T18:12:13;49271.44;;;-144.47;84.86
31585;BME280;18191;51.288;12.390;2022-12-07T18:17:03;49311.22;;;-144.47;86.34
31585;BME280;18191;51.288;12.390;2022-12-07T18:21:53;49319.19;;;-144.47;87.35
31585;BME280;18191;51.288;12.390;2022-12-07T18:26:43;49291.31;;;-144.47;87.31
31585;BME280;18191;51.288;12.390;2022-12-07T18:31:36;49287.34;;;-144.47;87.13
31585;BME280;18191;51.288;12.390;2022-12-07T18:36:26;49271.44;;;-144.47;86.55
31585;BME280;18191;51.288;12.390;2022-12-07T18:41:16;49305.25;;;-144.47;86.33
31585;BME280;18191;51.288;12.390;2022-12-07T18:46:14;49283.38;;;-144.47;86.60
31585;BME280;18191;51.288;12.390;2022-12-07T18:51:05;49283.38;;;-144.47;86.90
31585;BME280;18191;51.288;12.390;2022-12-07T18:55:59;49271.44;;;-144.47;87.22
31585;BME280;18191;51.288;12.390;2022-12-07T19:00:49;49269.44;;;-144.47;86.49
31585;BME280;18191;51.288;12.390;2022-12-07T19:05:40;49247.56;;;-144.47;87.30
31585;BME280;18191;51.288;12.390;2022-12-07T19:10:30;49223.69;;;-144.47;88.77
31585;BME280;18191;51.288;12.390;2022-12-07T19:15:20;49267.44;;;-144.47;88.69
31585;BME280;18191;51.288;12.390;2022-12-07T19:20:12;49313.22;;;-144.47;89.10
31585;BME280;18191;51.288;12.390;2022-12-07T19:25:03;49283.38;;;-144.47;88.75
31585;BME280;18191;51.288;12.390;2022-12-07T19:29:53;49295.31;;;-144.47;87.97
31585;BME280;18191;51.288;12.390;2022-12-07T19:34:44;49279.38;;;-144.47;88.18
31585;BME280;18191;51.288;12.390;2022-12-07T19:39:34;49279.38;;;-144.47;88.86
31585;BME280;18191;51.288;12.390;2022-12-07T19:44:25;49243.56;;;-144.47;89.90
31585;BME280;18191;51.288;12.390;2022-12-07T19:49:16;49247.56;;;-144.47;89.46
31585;BME280;18191;51.288;12.390;2022-12-07T19:54:08;49269.44;;;-144.47;88.08
31585;BME280;18191;51.288;12.390;2022-12-07T19:58:59;49265.47;;;-144.47;88.43
31585;BME280;18191;51.288;12.390;2022-12-07T20:03:49;49267.44;;;-144.47;85.68
31585;BME280;18191;51.288;12.390;2022-12-07T20:08:41;49317.19;;;-144.47;86.18
31585;BME280;18191;51.288;12.390;2022-12-07T20:13:32;49251.53;;;-144.47;87.63
31585;BME280;18191;51.288;12.390;2022-12-07T20:18:22;49267.44;;;-144.47;86.62
31585;BME280;18191;51.288;12.390;2022-12-07T20:23:12;49305.25;;;-144.47;86.64
31585;BME280;18191;51.288;12.390;2022-12-07T20:28:02;49275.41;;;-144.47;85.55
31585;BME280;18191;51.288;12.390;2022-12-07T20:32:53;49271.44;;;-144.47;87.32
31585;BME280;18191;51.288;12.390;2022-12-07T20:37:43;49287.34;;;-144.47;86.78
31585;BME280;18191;51.288;12.390;2022-12-07T20:42:33;49235.63;;;-144.47;87.04
31585;BME280;18191;51.288;12.390;2022-12-07T20:47:26;49251.53;;;-144.47;86.98
31585;BME280;18191;51.288;12.390;2022-12-07T20:52:16;49257.50;;;-144.47;87.52
31585;BME280;18191;51.288;12.390;2022-12-07T20:57:09;49251.53;;;-144.47;87.07
31585;BME280;18191;51.288;12.390;2022-12-07T21:01:59;49295.31;;;-144.47;86.35
31585;BME280;18191;51.288;12.390;2022-12-07T21:06:50;49275.41;;;-144.47;87.19
31585;BME280;18191;51.288;12.390;2022-12-07T21:11:40;49247.56;;;-144.47;87.27
31585;BME280;18191;51.288;12.390;2022-12-07T21:16:30;49255.50;;;-144.47;86.95
31585;BME280;18191;51.288;12.390;2022-12-07T21:21:20;49267.44;;;-144.47;86.68
31585;BME280;18191;51.288;12.390;2022-12-07T21:26:12;49271.44;;;-144.47;86.44
31585;BME280;18191;51.288;12.390;2022-12-07T21:31:02;49277.41;;;-144.47;85.54
31585;BME280;18191;51.288;12.390;2022-12-07T21:35:52;49267.44;;;-144.47;86.02
31585;BME280;18191;51.288;12.390;2022-12-07T21:40:43;49285.34;;;-144.47;86.37
31585;BME280;18191;51.288;12.390;2022-12-07T21:45:33;49295.31;;;-144.47;85.98
31585;BME280;18191;51.288;12.390;2022-12-07T21:50:23;49259.50;;;-144.47;85.29
31585;BME280;18191;51.288;12.390;2022-12-07T21:55:13;49247.56;;;-144.47;85.29
31585;BME280;18191;51.288;12.390;2022-12-07T22:00:04;49275.41;;;-144.47;85.00
31585;BME280;18191;51.288;12.390;2022-12-07T22:04:55;49253.53;;;-144.47;85.58
31585;BME280;18191;51.288;12.390;2022-12-07T22:09:45;49275.41;;;-144.47;85.55
31585;BME280;18191;51.288;12.390;2022-12-07T22:14:35;49283.38;;;-144.47;84.86
31585;BME280;18191;51.288;12.390;2022-12-07T22:19:44;49291.31;;;-144.47;85.25
31585;BME280;18191;51.288;12.390;2022-12-07T22:24:34;49287.34;;;-144.47;84.26
31585;BME280;18191;51.288;12.390;2022-12-07T22:29:25;49281.38;;;-144.47;84.56
31585;BME280;18191;51.288;12.390;2022-12-07T22:34:15;49295.31;;;-144.47;84.18
31585;BME280;18191;51.288;12.390;2022-12-07T22:39:07;49247.56;;;-144.47;84.12
31585;BME280;18191;51.288;12.390;2022-12-07T22:43:58;49267.44;;;-144.47;83.20
31585;BME280;18191;51.288;12.390;2022-12-07T22:48:48;49291.31;;;-144.47;84.68
31585;BME280;18191;51.288;12.390;2022-12-07T22:53:38;49295.31;;;-144.47;86.13
31585;BME280;18191;51.288;12.390;2022-12-07T22:58:29;49291.31;;;-144.47;85.14
31585;BME280;18191;51.288;12.390;2022-12-07T23:03:19;49275.41;;;-144.47;86.20
31585;BME280;18191;51.288;12.390;2022-12-07T23:08:09;49277.41;;;-144.47;85.88
31585;BME280;18191;51.288;12.390;2022-12-07T23:13:00;49279.38;;;-144.47;86.21
31585;BME280;18191;51.288;12.390;2022-12-07T23:18:13;49271.44;;;-144.47;84.73
31585;BME280;18191;51.288;12.390;2022-12-07T23:23:03;49323.16;;;-144.47;85.56
31585;BME280;18191;51.288;12.390;2022-12-07T23:27:53;49305.25;;;-144.47;85.31
31585;BME280;18191;51.288;12.390;2022-12-07T23:32:44;49243.56;;;-144.47;83.92
31585;BME280;18191;51.288;12.390;2022-12-07T23:37:34;49279.38;;;-144.47;84.87
31585;BME280;18191;51.288;12.390;2022-12-07T23:42:24;49265.47;;;-144.47;84.38
31585;BME280;18191;51.288;12.390;2022-12-07T23:47:14;49235.63;;;-144.47;84.62
31585;BME280;18191;51.288;12.390;2022-12-07T23:52:04;49305.25;;;-144.47;84.79
31585;BME280;18191;51.288;12.390;2022-12-07T23:56:55;49275.41;;;-144.47;83.99
